Wetterdaten: Woche 07.09.09 - 13.09.09 (KW37)
Datum Zeit Temperatur Luftfeuchte Luftdruck Niederschlag Windrichtung Wind
07.09.2009 00:00 9,6 C 89 % 1023,0 hPa 0,0 l/m N 0,7 km/h (0 Bft)
07.09.2009 01:00 9,3 C 90 % 1023,1 hPa 0,0 l/m N-NO 1,3 km/h (1 Bft)
07.09.2009 02:00 8,8 C 89 % 1023,0 hPa 0,0 l/m N 0,1 km/h (0 Bft)
07.09.2009 03:00 8,0 C 90 % 1022,8 hPa 0,0 l/m N 0,0 km/h (0 Bft)
07.09.2009 04:00 7,3 C 92 % 1022,7 hPa 0,0 l/m N 0,1 km/h (0 Bft)
07.09.2009 05:00 6,7 C 95 % 1022,6 hPa 0,0 l/m N 0,7 km/h (0 Bft)
07.09.2009 06:00 6,3 C 95 % 1022,5 hPa 0,0 l/m N 0,1 km/h (0 Bft)
07.09.2009 07:00 6,5 C 96 % 1022,8 hPa 0,0 l/m N 0,9 km/h (0 Bft)
07.09.2009 08:00 8,9 C 93 % 1022,9 hPa 0,0 l/m N 2,0 km/h (1 Bft)
07.09.2009 09:00 12,0 C 81 % 1023,1 hPa 0,0 l/m NO 3,3 km/h (1 Bft)
07.09.2009 10:00 15,3 C 66 % 1023,2 hPa 0,0 l/m SO 6,7 km/h (2 Bft)
07.09.2009 11:00 17,6 C 58 % 1023,1 hPa 0,0 l/m S-SW 9,3 km/h (2 Bft)
07.09.2009 12:00 19,4 C 54 % 1023,0 hPa 0,0 l/m S-SW 9,1 km/h (2 Bft)
07.09.2009 13:00 20,7 C 45 % 1022,8 hPa 0,0 l/m S-SO 8,3 km/h (2 Bft)
07.09.2009 14:00 21,1 C 43 % 1022,8 hPa 0,0 l/m SW 6,0 km/h (2 Bft)
07.09.2009 15:00 21,8 C 42 % 1022,4 hPa 0,0 l/m W-SW 5,1 km/h (1 Bft)
07.09.2009 16:00 22,4 C 37 % 1022,2 hPa 0,0 l/m O-SO 5,3 km/h (1 Bft)
07.09.2009 17:00 22,2 C 33 % 1021,9 hPa 0,0 l/m O 4,3 km/h (1 Bft)
07.09.2009 18:00 19,5 C 60 % 1021,7 hPa 0,0 l/m O 2,0 km/h (1 Bft)
07.09.2009 19:00 16,5 C 66 % 1021,8 hPa 0,0 l/m N-NO 1,7 km/h (1 Bft)
07.09.2009 20:00 14,4 C 72 % 1022,3 hPa 0,0 l/m N 2,3 km/h (1 Bft)
07.09.2009 21:00 13,2 C 79 % 1022,6 hPa 0,0 l/m N 0,9 km/h (0 Bft)
07.09.2009 22:00 12,0 C 86 % 1022,7 hPa 0,0 l/m N 0,5 km/h (0 Bft)
07.09.2009 23:00 11,2 C 88 % 1022,6 hPa 0,0 l/m N 1,3 km/h (1 Bft)
08.09.2009 00:00 10,8 C 90 % 1022,5 hPa 0,0 l/m N 3,5 km/h (1 Bft)
08.09.2009 01:00 10,7 C 90 % 1022,5 hPa 0,0 l/m N 2,0 km/h (1 Bft)
08.09.2009 02:00 9,7 C 91 % 1022,5 hPa 0,0 l/m N 0,5 km/h (0 Bft)
08.09.2009 03:00 9,1 C 93 % 1022,7 hPa 0,0 l/m N 1,3 km/h (1 Bft)
08.09.2009 04:00 8,7 C 94 % 1023,0 hPa 0,0 l/m N-NW 1,7 km/h (1 Bft)
08.09.2009 05:00 8,6 C 95 % 1022,9 hPa 0,0 l/m N-NW 1,7 km/h (1 Bft)
08.09.2009 06:00 8,5 C 96 % 1023,2 hPa 0,0 l/m N-NW 3,1 km/h (1 Bft)
08.09.2009 07:00 8,6 C 96 % 1023,5 hPa 0,0 l/m N-NW 2,5 km/h (1 Bft)
08.09.2009 08:00 10,5 C 94 % 1023,5 hPa 0,0 l/m N-NW 5,3 km/h (1 Bft)
08.09.2009 09:00 13,2 C 86 % 1023,7 hPa 0,0 l/m N-NO 6,7 km/h (2 Bft)
08.09.2009 10:00 16,1 C 76 % 1023,6 hPa 0,0 l/m N-NO 7,3 km/h (2 Bft)
08.09.2009 11:00 19,1 C 63 % 1023,2 hPa 0,0 l/m NO 6,8 km/h (2 Bft)
08.09.2009 12:00 21,3 C 55 % 1022,7 hPa 0,0 l/m NO 9,4 km/h (2 Bft)
08.09.2009 13:00 23,1 C 43 % 1022,2 hPa 0,0 l/m NO 12,2 km/h (2 Bft)
08.09.2009 14:00 24,2 C 34 % 1021,9 hPa 0,0 l/m O-NO 14,1 km/h (3 Bft)
08.09.2009 15:00 24,5 C 36 % 1021,7 hPa 0,0 l/m O-NO 16,1 km/h (3 Bft)
08.09.2009 16:00 24,3 C 36 % 1021,4 hPa 0,0 l/m NO 17,6 km/h (3 Bft)
08.09.2009 17:00 23,9 C 37 % 1020,9 hPa 0,0 l/m O-NO 16,1 km/h (3 Bft)
08.09.2009 18:00 22,5 C 42 % 1020,8 hPa 0,0 l/m O-NO 14,6 km/h (3 Bft)
08.09.2009 19:00 20,2 C 47 % 1020,8 hPa 0,0 l/m O-NO 7,9 km/h (2 Bft)
08.09.2009 20:00 16,7 C 64 % 1021,1 hPa 0,0 l/m O-NO 2,0 km/h (1 Bft)
08.09.2009 21:00 14,7 C 73 % 1021,4 hPa 0,0 l/m O-NO 2,5 km/h (1 Bft)
08.09.2009 22:00 13,9 C 75 % 1021,3 hPa 0,0 l/m N-NO 6,0 km/h (2 Bft)
08.09.2009 23:00 13,4 C 77 % 1021,3 hPa 0,0 l/m N-NO 6,4 km/h (2 Bft)
09.09.2009 00:00 13,3 C 78 % 1020,9 hPa 0,0 l/m N-NO 7,4 km/h (2 Bft)
09.09.2009 01:00 12,4 C 82 % 1020,7 hPa 0,0 l/m NW 6,8 km/h (2 Bft)
09.09.2009 02:00 11,5 C 86 % 1020,5 hPa 0,0 l/m NW 5,2 km/h (1 Bft)
09.09.2009 03:00 11,0 C 88 % 1020,4 hPa 0,0 l/m N-NW 6,8 km/h (2 Bft)
09.09.2009 04:00 10,7 C 88 % 1020,2 hPa 0,0 l/m N-NW 6,3 km/h (2 Bft)
09.09.2009 05:00 9,9 C 90 % 1020,2 hPa 0,0 l/m N-NW 5,5 km/h (1 Bft)
09.09.2009 06:00 9,2 C 92 % 1020,5 hPa 0,0 l/m N-NW 6,1 km/h (2 Bft)
09.09.2009 07:00 9,1 C 92 % 1020,9 hPa 0,0 l/m N-NW 5,9 km/h (2 Bft)
09.09.2009 08:00 11,0 C 87 % 1021,2 hPa 0,0 l/m N-NW 7,0 km/h (2 Bft)
09.09.2009 09:00 13,8 C 77 % 1021,3 hPa 0,0 l/m N-NO 10,7 km/h (2 Bft)
09.09.2009 10:00 15,7 C 68 % 1021,4 hPa 0,0 l/m O-NO 15,7 km/h (3 Bft)
09.09.2009 11:00 18,0 C 58 % 1021,5 hPa 0,0 l/m NO 15,8 km/h (3 Bft)
09.09.2009 12:00 19,7 C 49 % 1021,3 hPa 0,0 l/m NO 16,1 km/h (3 Bft)
09.09.2009 13:00 21,3 C 42 % 1021,1 hPa 0,0 l/m O-NO 16,1 km/h (3 Bft)
09.09.2009 14:00 22,1 C 38 % 1020,9 hPa 0,0 l/m NO 16,0 km/h (3 Bft)
09.09.2009 15:00 22,5 C 36 % 1020,8 hPa 0,0 l/m NO 18,0 km/h (3 Bft)
09.09.2009 16:00 22,5 C 35 % 1020,7 hPa 0,0 l/m O-NO 19,6 km/h (3 Bft)
09.09.2009 17:00 22,1 C 39 % 1020,8 hPa 0,0 l/m NO 18,0 km/h (3 Bft)
09.09.2009 18:00 21,0 C 43 % 1021,1 hPa 0,0 l/m NO 15,2 km/h (3 Bft)
09.09.2009 19:00 18,5 C 54 % 1021,3 hPa 0,0 l/m NO 4,1 km/h (1 Bft)
09.09.2009 20:00 14,9 C 71 % 1021,9 hPa 0,0 l/m N 1,3 km/h (1 Bft)
09.09.2009 21:00 13,5 C 75 % 1022,2 hPa 0,0 l/m N 2,5 km/h (1 Bft)
09.09.2009 22:00 12,8 C 76 % 1022,3 hPa 0,0 l/m N 3,9 km/h (1 Bft)
09.09.2009 23:00 12,4 C 76 % 1022,7 hPa 0,0 l/m N 4,7 km/h (1 Bft)
10.09.2009 00:00 12,2 C 75 % 1022,9 hPa 0,0 l/m N-NW 4,0 km/h (1 Bft)
10.09.2009 01:00 10,9 C 83 % 1023,1 hPa 0,0 l/m N 0,0 km/h (0 Bft)
10.09.2009 02:00 9,9 C 87 % 1022,9 hPa 0,0 l/m N 0,0 km/h (0 Bft)
10.09.2009 03:00 9,2 C 90 % 1023,0 hPa 0,0 l/m N 0,4 km/h (0 Bft)
10.09.2009 04:00 8,8 C 90 % 1022,9 hPa 0,0 l/m N 0,0 km/h (0 Bft)
10.09.2009 05:00 8,4 C 91 % 1022,8 hPa 0,0 l/m N 0,0 km/h (0 Bft)
10.09.2009 06:00 8,0 C 93 % 1022,9 hPa 0,0 l/m N 0,0 km/h (0 Bft)
10.09.2009 07:00 7,9 C 93 % 1023,4 hPa 0,0 l/m N 0,0 km/h (0 Bft)
10.09.2009 08:00 10,6 C 86 % 1023,7 hPa 0,0 l/m N-NW 2,9 km/h (1 Bft)
10.09.2009 09:00 14,5 C 73 % 1023,8 hPa 0,0 l/m N-NO 5,2 km/h (1 Bft)
10.09.2009 10:00 17,7 C 60 % 1023,9 hPa 0,0 l/m N-NO 6,9 km/h (2 Bft)
10.09.2009 11:00 20,0 C 53 % 1023,8 hPa 0,0 l/m N-NW 7,3 km/h (2 Bft)
10.09.2009 12:00 21,6 C 45 % 1023,5 hPa 0,0 l/m O-NO 12,4 km/h (3 Bft)
10.09.2009 13:00 22,5 C 43 % 1023,2 hPa 0,0 l/m NO 15,3 km/h (3 Bft)
10.09.2009 14:00 23,2 C 41 % 1023,0 hPa 0,0 l/m O-NO 15,8 km/h (3 Bft)
10.09.2009 15:00 23,4 C 38 % 1022,8 hPa 0,0 l/m NO 16,5 km/h (3 Bft)
10.09.2009 16:00 23,3 C 37 % 1022,8 hPa 0,0 l/m O-NO 16,6 km/h (3 Bft)
10.09.2009 17:00 22,9 C 41 % 1022,7 hPa 0,0 l/m NO 15,2 km/h (3 Bft)
10.09.2009 18:00 21,7 C 46 % 1022,9 hPa 0,0 l/m N-NO 11,0 km/h (2 Bft)
10.09.2009 19:00 19,0 C 55 % 1023,2 hPa 0,0 l/m N 8,4 km/h (2 Bft)
10.09.2009 20:00 17,4 C 59 % 1023,8 hPa 0,0 l/m N 8,5 km/h (2 Bft)
10.09.2009 21:00 15,6 C 67 % 1024,2 hPa 0,0 l/m N 6,7 km/h (2 Bft)
10.09.2009 22:00 14,6 C 72 % 1024,2 hPa 0,0 l/m N-NW 7,8 km/h (2 Bft)
10.09.2009 23:00 14,0 C 75 % 1024,5 hPa 0,0 l/m N 8,3 km/h (2 Bft)
11.09.2009 00:00 13,7 C 77 % 1024,8 hPa 0,0 l/m N-NW 8,4 km/h (2 Bft)
11.09.2009 01:00 13,2 C 78 % 1024,8 hPa 0,0 l/m N-NW 8,4 km/h (2 Bft)
11.09.2009 02:00 12,6 C 82 % 1024,5 hPa 0,0 l/m N-NW 7,3 km/h (2 Bft)
11.09.2009 03:00 12,5 C 86 % 1024,3 hPa 0,0 l/m N-NW 7,7 km/h (2 Bft)
11.09.2009 04:00 13,6 C 86 % 1024,1 hPa 0,0 l/m N-NO 10,4 km/h (2 Bft)
11.09.2009 05:00 14,0 C 85 % 1024,0 hPa 0,0 l/m N-NO 13,2 km/h (3 Bft)
11.09.2009 06:00 13,9 C 86 % 1024,1 hPa 0,0 l/m N-NO 12,1 km/h (2 Bft)
11.09.2009 07:00 13,7 C 87 % 1024,4 hPa 0,0 l/m N-NO 11,2 km/h (2 Bft)
11.09.2009 08:00 13,7 C 88 % 1024,7 hPa 0,0 l/m NO 12,1 km/h (2 Bft)
11.09.2009 09:00 13,7 C 88 % 1025,1 hPa 0,0 l/m NO 16,2 km/h (3 Bft)
11.09.2009 10:00 13,8 C 88 % 1025,3 hPa 0,0 l/m N-NO 13,7 km/h (3 Bft)
11.09.2009 11:00 14,4 C 87 % 1025,3 hPa 0,0 l/m O-NO 13,7 km/h (3 Bft)
11.09.2009 12:00 15,2 C 83 % 1025,1 hPa 0,0 l/m O-NO 16,5 km/h (3 Bft)
11.09.2009 13:00 15,8 C 80 % 1025,0 hPa 0,0 l/m O-NO 16,8 km/h (3 Bft)
11.09.2009 14:00 17,0 C 75 % 1024,5 hPa 0,0 l/m O-NO 18,0 km/h (3 Bft)
11.09.2009 15:00 17,6 C 72 % 1023,9 hPa 0,0 l/m NO 19,8 km/h (4 Bft)
11.09.2009 16:00 17,9 C 71 % 1023,4 hPa 0,0 l/m O-NO 21,6 km/h (4 Bft)
11.09.2009 17:00 17,7 C 71 % 1022,9 hPa 0,0 l/m NO 19,4 km/h (3 Bft)
11.09.2009 18:00 17,1 C 73 % 1023,1 hPa 0,0 l/m O-NO 19,4 km/h (3 Bft)
11.09.2009 19:00 16,1 C 78 % 1023,4 hPa 0,0 l/m NO 13,1 km/h (3 Bft)
11.09.2009 20:00 14,8 C 84 % 1023,9 hPa 0,0 l/m N-NO 6,1 km/h (2 Bft)
11.09.2009 21:00 14,1 C 87 % 1023,8 hPa 0,0 l/m N 6,5 km/h (2 Bft)
11.09.2009 22:00 13,9 C 88 % 1023,6 hPa 0,0 l/m N 6,8 km/h (2 Bft)
11.09.2009 23:00 13,8 C 90 % 1023,3 hPa 0,0 l/m N 7,6 km/h (2 Bft)
12.09.2009 00:00 14,4 C 86 % 1022,8 hPa 0,0 l/m N-NO 11,9 km/h (2 Bft)
12.09.2009 01:00 14,3 C 83 % 1022,1 hPa 0,0 l/m N-NO 10,9 km/h (2 Bft)
12.09.2009 02:00 13,5 C 81 % 1021,8 hPa 0,0 l/m NO 11,8 km/h (2 Bft)
12.09.2009 03:00 12,9 C 81 % 1021,4 hPa 0,0 l/m NO 14,9 km/h (3 Bft)
12.09.2009 04:00 12,9 C 80 % 1021,0 hPa 0,0 l/m NO 12,5 km/h (3 Bft)
12.09.2009 05:00 12,5 C 82 % 1020,7 hPa 0,0 l/m N 8,7 km/h (2 Bft)
12.09.2009 06:00 11,5 C 85 % 1020,7 hPa 0,0 l/m NO 9,5 km/h (2 Bft)
12.09.2009 07:00 11,0 C 87 % 1020,8 hPa 0,0 l/m NO 14,8 km/h (3 Bft)
12.09.2009 08:00 11,6 C 85 % 1020,5 hPa 0,0 l/m O-NO 15,0 km/h (3 Bft)
12.09.2009 09:00 13,5 C 80 % 1020,3 hPa 0,0 l/m O-NO 16,9 km/h (3 Bft)
12.09.2009 10:00 15,2 C 75 % 1020,4 hPa 0,0 l/m NO 17,6 km/h (3 Bft)
12.09.2009 11:00 16,4 C 72 % 1020,1 hPa 0,0 l/m O 20,8 km/h (4 Bft)
12.09.2009 12:00 16,8 C 71 % 1019,8 hPa 0,0 l/m O-NO 20,6 km/h (4 Bft)
12.09.2009 13:00 17,6 C 68 % 1019,5 hPa 0,0 l/m NO 21,8 km/h (4 Bft)
12.09.2009 14:00 18,1 C 65 % 1019,5 hPa 0,0 l/m O-NO 23,3 km/h (4 Bft)
12.09.2009 15:00 18,2 C 65 % 1019,2 hPa 0,0 l/m O-SO 19,0 km/h (3 Bft)
12.09.2009 16:00 18,6 C 64 % 1018,8 hPa 0,0 l/m NO 18,6 km/h (3 Bft)
12.09.2009 17:00 18,1 C 66 % 1018,6 hPa 0,0 l/m O-NO 18,0 km/h (3 Bft)
12.09.2009 18:00 17,6 C 67 % 1018,6 hPa 0,0 l/m O-NO 16,9 km/h (3 Bft)
12.09.2009 19:00 16,2 C 73 % 1018,9 hPa 0,0 l/m NO 7,1 km/h (2 Bft)
12.09.2009 20:00 15,7 C 75 % 1019,4 hPa 0,0 l/m NO 7,2 km/h (2 Bft)
12.09.2009 21:00 14,9 C 79 % 1019,6 hPa 0,0 l/m NO 5,1 km/h (1 Bft)
12.09.2009 22:00 13,2 C 86 % 1019,4 hPa 0,0 l/m N-NW 4,5 km/h (1 Bft)
12.09.2009 23:00 12,3 C 89 % 1019,1 hPa 0,0 l/m N-NW 1,6 km/h (1 Bft)
13.09.2009 00:00 12,2 C 89 % 1019,0 hPa 0,0 l/m N-NO 8,9 km/h (2 Bft)
13.09.2009 01:00 11,9 C 85 % 1018,8 hPa 0,0 l/m N 8,2 km/h (2 Bft)
13.09.2009 02:00 11,2 C 84 % 1018,8 hPa 0,0 l/m N 7,4 km/h (2 Bft)
13.09.2009 03:00 10,4 C 85 % 1018,6 hPa 0,0 l/m N-NW 5,5 km/h (1 Bft)
13.09.2009 04:00 9,8 C 85 % 1018,5 hPa 0,0 l/m N-NW 5,5 km/h (1 Bft)
13.09.2009 05:00 9,4 C 86 % 1018,3 hPa 0,0 l/m N-NW 4,9 km/h (1 Bft)
13.09.2009 06:00 8,9 C 88 % 1018,4 hPa 0,0 l/m N-NW 4,0 km/h (1 Bft)
13.09.2009 07:00 9,4 C 87 % 1018,5 hPa 0,0 l/m N-NW 4,5 km/h (1 Bft)
13.09.2009 08:00 10,6 C 83 % 1018,5 hPa 0,0 l/m NW 4,9 km/h (1 Bft)
13.09.2009 09:00 12,2 C 78 % 1018,3 hPa 0,0 l/m N-NO 6,4 km/h (2 Bft)
13.09.2009 10:00 14,6 C 70 % 1017,9 hPa 0,0 l/m NO 7,6 km/h (2 Bft)
13.09.2009 11:00 16,6 C 58 % 1017,5 hPa 0,0 l/m N-NO 9,4 km/h (2 Bft)
13.09.2009 12:00 17,8 C 53 % 1016,9 hPa 0,0 l/m NO 10,3 km/h (2 Bft)
13.09.2009 13:00 18,3 C 54 % 1016,0 hPa 0,0 l/m W-NW 9,1 km/h (2 Bft)
13.09.2009 14:00 18,1 C 54 % 1015,4 hPa 0,0 l/m N-NW 10,2 km/h (2 Bft)
13.09.2009 15:00 18,6 C 52 % 1014,8 hPa 0,0 l/m NW 12,5 km/h (3 Bft)
13.09.2009 16:00 18,3 C 53 % 1014,3 hPa 0,0 l/m N 15,6 km/h (3 Bft)
13.09.2009 17:00 17,2 C 54 % 1014,1 hPa 0,0 l/m N 17,3 km/h (3 Bft)
13.09.2009 18:00 15,9 C 57 % 1013,9 hPa 0,0 l/m NO 20,1 km/h (4 Bft)
13.09.2009 19:00 14,4 C 58 % 1014,0 hPa 0,0 l/m N 17,8 km/h (3 Bft)
13.09.2009 20:00 13,7 C 60 % 1014,5 hPa 0,0 l/m N-NO 7,5 km/h (2 Bft)
13.09.2009 21:00 12,9 C 66 % 1015,0 hPa 0,0 l/m N 9,7 km/h (2 Bft)
13.09.2009 22:00 12,2 C 73 % 1015,3 hPa 0,0 l/m N-NW 6,3 km/h (2 Bft)
13.09.2009 23:00 11,7 C 76 % 1015,2 hPa 0,0 l/m NW 6,6 km/h (2 Bft)
Min-Datum _ 07.09.09 07.09.09 13.09.09 - - 07.09.09
_ Min-Zeit 06:50 17:15 18:35 - - 00:00
Minimum _ 5,9 C 29 % 1013,7 hPa - - 0,0 km/h (0 Bft)
Max-Datum _ 08.09.09 07.09.09 11.09.09 07.09.09 - 11.09.09
_ Max-Zeit 15:30 07:40 09:50 00:00 - 16:25
Maximum _ 24,7 C 97 % 1025,3 hPa 0,0 l/m - 27,4 km/h
O-NO (4 Bft)
Durchschnitt _ 14,8 C 72 % 1021,5 hPa #0,0 l/m NO 8,9 km/h (2 Bft)